Portada
METAR-TAF:

METAR-TAF

Aeroports :

Morlaix, França

latitud: 48-36N, longitud: 3-49W, altitud: 84 m

Observació

L'informe es va fer fa 8 hores i 13 minuts, a les 20:00 UTC
Vent 6 kt del Oest/Sud-Oest
Temperatura 19°C
Humitat 73%
Pressió 1023 hPa
Visibilitat 10 km o més
sense núvols per sota de 1500 mi sense presència de cumulonimbus.

METAR: LFRU 212000Z AUTO 25006KT CAVOK 19/14 Q1023

Hora: 06:13 (04:13 UTC)


TAF: manca

Observacions i pronòstics meteorològics de més de 4000 aeroports (METAR i TAF).

Les estacions disponibles són els punts grocs i vermells al mapa.

Posi el ratolí al punt desitjat per veure el nom de l'estació.

Feu clic per veure les observacions i els pronòstics meteorològics.

Per canviar el mapa: feu clic els botons verds amb una creu de color negre per apropar; al botó verd amb un guió per allunyar la imatge; o en les fletxes verdes per a mapes adjacents.


METAR-TAF: